Latest Weather Observations for St Lawrence

IDQ60801

Issued at 3:32 pm EST Sunday 22 January 2017 (issued every 30 minutes, with the page automatically refreshed every 10 minutes)

About weather observations | Map of weather stations | Latest weather observations for QLD | Other Formats
Station Details ID: 033210 Name: ST LAWRENCE Lat: -22.35 Lon: 149.52 Height: 9.19 m
Data from the previous 72 hours. | See also: Recent months at St Lawrence
Date/Time
EST
Temp
°C
App
Temp
°C
Dew
Point
°C
Rel
Hum
%
Delta-T
°C
Wind Press
QNH
hPa
Press
MSL
hPa
Rain since
9am
mm
Dir  Spd
km/h
Gust
km/h
Spd
kts
Gust
kts
22/03:30pm 30.6 32.5 23.8 67 4.7 NNE 20 28 11 15 1010.3 1010.2 0.0
22/03:00pm 31.7 32.9 23.2 60 5.9 NNE 22 30 12 16 1010.3 1010.2 0.0
22/02:30pm 32.5 33.7 23.2 58 6.4 NNE 22 32 12 17 1010.4 1010.3 0.0
22/02:00pm 31.5 32.7 22.5 59 6.2 NNE 20 30 11 16 1010.6 1010.5 0.0
22/01:30pm 31.9 33.0 22.3 56 6.5 NE 20 26 11 14 1010.7 1010.6 0.0
22/01:00pm 32.4 33.3 21.9 54 7.1 NNE 20 32 11 17 1010.8 1010.7 0.0
22/12:30pm 32.3 33.3 21.8 54 7.1 NNE 19 28 10 15 1011.1 1011.0 0.0
22/12:00pm 31.9 33.5 23.2 60 6.0 NNE 20 30 11 16 1011.4 1011.3 0.0
22/11:30am 31.6 34.1 24.5 66 5.0 NNE 19 24 10 13 1011.7 1011.6 0.0
22/11:00am 31.2 33.0 22.5 60 5.9 NE 17 24 9 13 1011.8 1011.7 0.0
22/10:30am 31.6 34.0 22.9 60 6.0 ENE 15 20 8 11 1012.0 1011.9 0.0
22/10:00am 31.6 34.8 23.7 63 5.5 ENE 13 22 7 12 1012.1 1012.0 0.0
22/09:30am 29.8 32.9 23.5 69 4.3 NE 13 15 7 8 1012.2 1012.1 0.0
22/09:00am 29.5 33.5 23.7 71 4.0 ENE 9 13 5 7 1012.1 1012.0 0.0
22/08:30am 29.9 33.2 23.8 70 4.2 NNE 13 28 7 15 1012.0 1011.9 0.0
22/08:00am 29.1 32.5 23.3 71 4.0 NNE 11 15 6 8 1011.7 1011.6 0.0
22/07:30am 28.8 32.3 23.5 73 3.6 NE 11 15 6 8 1011.3 1011.2 0.0
22/07:00am 26.8 30.6 23.5 82 2.3 SSE 9 13 5 7 1011.1 1011.0 0.0
22/06:30am 24.3 28.4 22.2 88 1.4 SW 4 7 2 4 1010.4 1010.3 0.0
22/06:00am 23.1 26.4 21.4 90 1.1 WSW 6 7 3 4 1009.7 1009.6 0.0
22/05:30am 23.6 27.0 21.7 89 1.3 SSW 6 9 3 5 1009.0 1008.9 0.0
22/05:00am 24.1 27.2 22.2 89 1.3 SSE 9 13 5 7 1008.6 1008.5 0.0
22/04:30am 23.3 25.7 21.6 90 1.1 S 11 17 6 9 1008.1 1008.0 0.0
22/04:00am 23.0 25.9 21.1 89 1.2 SSW 7 11 4 6 1007.7 1007.6 0.0
22/03:30am 23.2 26.8 21.3 89 1.2 WSW 4 7 2 4 1007.5 1007.4 0.0
22/03:00am 23.7 28.2 21.6 88 1.4 CALM 0 0 0 0 1007.5 1007.4 0.0
22/02:30am 24.0 28.7 21.9 88 1.4 CALM 0 0 0 0 1007.8 1007.7 0.0
22/02:00am 24.2 29.0 22.1 88 1.4 CALM 0 0 0 0 1008.0 1007.9 0.0
22/01:30am 24.6 29.4 22.1 86 1.7 CALM 0 0 0 0 1008.2 1008.1 0.0
22/01:00am 24.7 28.2 21.8 84 1.9 NW 6 9 3 5 1008.4 1008.3 0.0
22/12:30am 25.8 29.5 22.3 81 2.3 NNE 6 7 3 4 1008.6 1008.5 0.0
22/12:00am 25.8 30.1 21.9 79 2.6 N 2 7 1 4 1008.8 1008.7 0.0
 
Date/Time
EST
Temp
°C
App
Temp
°C
Dew
Point
°C
Rel
Hum
%
Delta-T
°C
Wind Press
QNH
hPa
Press
MSL
hPa
Rain since
9am
mm
Dir  Spd
km/h
Gust
km/h
Spd
kts
Gust
kts
21/11:30pm 26.5 30.1 22.3 78 2.8 N 7 9 4 5 1009.0 1008.9 0.0
21/11:00pm 26.8 30.4 22.4 77 3.0 N 7 11 4 6 1009.2 1009.1 0.0
21/10:30pm 27.0 30.0 22.6 77 3.0 NNE 11 13 6 7 1009.3 1009.2 0.0
21/10:00pm 27.3 29.9 22.7 76 3.1 NNE 13 17 7 9 1009.2 1009.1 0.0
21/09:30pm 27.7 31.0 22.6 74 3.5 NNE 9 13 5 7 1009.0 1008.9 0.0
21/09:00pm 28.0 31.8 22.7 73 3.6 NNE 7 9 4 5 1008.6 1008.5 0.0
21/08:30pm 28.0 31.4 22.7 73 3.6 NNE 9 9 5 5 1008.2 1008.1 0.0
21/08:00pm 28.3 31.6 22.5 71 3.9 N 9 13 5 7 1007.9 1007.8 0.0
21/07:30pm 28.7 31.2 22.4 68 4.3 N 13 17 7 9 1007.5 1007.4 0.0
21/07:00pm 29.0 31.7 22.2 66 4.6 N 11 17 6 9 1007.0 1006.9 0.0
21/06:30pm 29.7 30.9 22.2 64 5.1 NNE 19 28 10 15 1006.5 1006.4 0.0
21/06:00pm 30.2 31.2 22.1 62 5.5 NNE 20 28 11 15 1006.2 1006.1 0.0
21/05:30pm 31.1 32.3 22.1 58 6.1 NNE 19 28 10 15 1005.9 1005.8 0.0
21/05:00pm 31.4 31.8 21.0 54 7.0 NE 20 28 11 15 1005.7 1005.6 0.0
21/04:30pm 31.7 31.9 20.6 51 7.4 NE 20 30 11 16 1005.5 1005.4 0.0
21/04:00pm 32.0 32.0 20.9 52 7.4 NE 22 30 12 16 1005.6 1005.5 0.0
21/03:30pm 32.4 32.3 20.0 48 8.2 NE 20 30 11 16 1005.8 1005.7 0.0
21/03:00pm 32.8 32.5 20.3 47 8.3 NE 22 28 12 15 1006.2 1006.1 0.0
21/02:30pm 33.2 33.1 20.0 45 8.8 NE 20 26 11 14 1006.5 1006.4 0.0
21/02:00pm 33.7 33.9 19.4 43 9.4 NE 17 24 9 13 1006.9 1006.8 0.0
21/01:30pm 33.2 33.9 19.7 45 8.9 NE 15 26 8 14 1007.2 1007.1 0.0
21/01:00pm 33.1 33.8 19.6 45 8.9 NE 15 24 8 13 1007.4 1007.3 0.0
21/12:30pm 33.0 33.6 20.2 47 8.5 NE 17 24 9 13 1007.6 1007.5 0.0
21/12:00pm 32.9 33.9 19.4 45 8.9 NE 13 20 7 11 1007.9 1007.8 0.0
21/11:30am 32.8 33.2 18.9 43 9.1 NE 15 22 8 12 1008.2 1008.1 0.0
21/11:00am 32.9 33.3 16.3 37 10.5 NE 9 17 5 9 1008.5 1008.4 0.0
21/10:30am 32.3 34.0 16.2 38 10.1 N 2 9 1 5 1008.9 1008.8 0.0
21/10:00am 31.5 32.9 17.8 44 8.8 W 7 11 4 6 1009.4 1009.3 0.0
21/09:30am 30.0 31.7 18.1 49 7.6 N 6 11 3 6 1009.5 1009.4 0.0
21/09:00am 28.6 30.7 18.1 53 6.7 N 4 9 2 5 1009.4 1009.3 0.0
21/08:30am 27.6 29.2 19.1 59 5.5 NNW 9 13 5 7 1009.6 1009.5 0.0
21/08:00am 26.8 28.9 20.2 67 4.3 NNW 9 13 5 7 1009.5 1009.4 0.0
21/07:30am 25.4 28.0 20.0 72 3.5 NNW 6 9 3 5 1009.4 1009.3 0.0
21/07:00am 23.1 25.3 19.3 79 2.4 WSW 6 7 3 4 1009.4 1009.3 0.0
21/06:30am 21.6 23.9 18.6 83 1.9 W 4 7 2 4 1009.2 1009.1 0.0
21/06:00am 20.5 22.3 18.4 88 1.3 WSW 6 7 3 4 1009.1 1009.0 0.0
21/05:30am 20.3 23.2 18.2 88 1.3 CALM 0 0 0 0 1008.4 1008.3 0.0
21/05:00am 20.5 23.0 18.1 86 1.5 SW 2 6 1 3 1008.1 1008.0 0.0
21/04:30am 20.5 22.3 18.3 87 1.4 SW 6 7 3 4 1007.8 1007.7 0.0
21/04:00am 20.8 23.2 18.7 88 1.3 W 4 7 2 4 1007.4 1007.3 0.0
21/03:30am 20.7 24.0 19.0 90 1.1 CALM 0 0 0 0 1007.2 1007.1 0.0
21/03:00am 20.6 22.8 19.3 92 0.8 WSW 6 7 3 4 1007.1 1007.0 0.0
21/02:30am 20.7 23.2 19.0 90 1.1 SW 4 9 2 5 1007.1 1007.0 0.0
21/02:00am 21.3 24.4 19.4 89 1.2 SSW 2 7 1 4 1007.3 1007.2 0.0
21/01:30am 21.3 24.4 19.4 89 1.2 SW 2 7 1 4 1007.4 1007.3 0.0
21/01:00am 21.9 25.5 19.8 88 1.3 CALM 0 4 0 2 1007.5 1007.4 0.0
21/12:30am 21.9 25.4 19.5 86 1.5 CALM 0 0 0 0 1008.1 1008.0 0.0
21/12:00am 22.7 26.4 20.0 85 1.7 CALM 0 0 0 0 1008.2 1008.1 0.0
 
Date/Time
EST
Temp
°C
App
Temp
°C
Dew
Point
°C
Rel
Hum
%
Delta-T
°C
Wind Press
QNH
hPa
Press
MSL
hPa
Rain since
9am
mm
Dir  Spd
km/h
Gust
km/h
Spd
kts
Gust
kts
20/11:30pm 22.8 26.4 19.8 83 1.9 CALM 0 0 0 0 1008.6 1008.5 0.0
20/11:00pm 23.3 26.7 20.1 82 2.1 SW 2 6 1 3 1008.7 1008.6 0.0
20/10:30pm 24.6 27.4 20.9 80 2.4 N 7 9 4 5 1008.7 1008.6 0.0
20/10:00pm 24.2 28.0 20.1 78 2.7 CALM 0 0 0 0 1008.7 1008.6 0.0
20/09:30pm 24.6 28.4 20.1 76 2.9 CALM 0 0 0 0 1008.7 1008.6 0.0
20/09:00pm 25.3 29.1 20.1 73 3.4 CALM 0 0 0 0 1008.7 1008.6 0.0
20/08:30pm 25.8 29.5 19.9 70 3.8 CALM 0 6 0 3 1008.5 1008.4 0.0
20/08:00pm 26.7 29.1 20.1 67 4.3 NNW 7 9 4 5 1008.1 1008.0 0.0
20/07:30pm 27.7 28.9 20.0 63 5.0 NNE 13 19 7 10 1007.6 1007.5 0.0
20/07:00pm 28.4 29.5 19.6 59 5.7 N 13 22 7 12 1007.5 1007.4 0.0
20/06:30pm 29.0 29.0 20.2 59 5.8 N 20 26 11 14 1006.7 1006.6 0.0
20/06:00pm 29.7 29.5 19.4 54 6.7 NNE 19 28 10 15 1006.6 1006.5 0.0
20/05:30pm 30.4 30.1 19.1 50 7.3 NNE 19 26 10 14 1006.1 1006.0 0.0
20/05:00pm 30.9 30.8 19.6 51 7.4 NE 19 26 10 14 1005.9 1005.8 0.0
20/04:30pm 31.1 30.9 19.4 49 7.7 NE 19 28 10 15 1005.8 1005.7 0.0
20/04:00pm 31.4 31.1 19.1 48 8.0 NE 19 28 10 15 1006.0 1005.9 0.0
20/03:30pm 32.4 32.0 19.3 46 8.6 NNE 20 26 11 14 1006.3 1006.2 0.0
20/03:00pm 32.4 31.9 18.6 44 9.0 NNE 19 26 10 14 1006.8 1006.7 0.0
20/02:30pm 33.0 33.6 19.5 45 8.9 NE 15 22 8 12 1007.1 1007.0 0.0
20/02:00pm 32.5 32.3 17.5 40 9.6 ENE 15 20 8 11 1007.5 1007.4 0.0
20/01:30pm 33.5 32.1 14.5 31 11.7 NE 15 22 8 12 1007.5 1007.4 0.0
20/01:00pm 32.9 33.1 16.7 38 10.3 NE 11 17 6 9 1008.1 1008.0 0.0
20/12:30pm 32.6 32.7 18.4 43 9.2 NE 15 24 8 13 1008.6 1008.5 0.0
20/12:00pm 32.2 31.6 15.7 37 10.3 ENE 13 17 7 9 1008.8 1008.7 0.0
20/11:30am 32.0 33.3 19.3 47 8.3 NE 11 19 6 10 1009.1 1009.0 0.0
20/11:00am 31.2 32.8 20.8 54 6.9 ENE 13 19 7 10 1009.5 1009.4 0.0
20/10:30am 31.2 33.7 21.1 55 6.8 ENE 9 15 5 8 1009.7 1009.6 0.0
20/10:00am 30.3 32.5 19.6 52 7.0 NE 7 15 4 8 1010.0 1009.9 0.0
20/09:30am 30.2 33.5 20.7 56 6.3 WNW 4 9 2 5 1010.2 1010.1 0.0
20/09:00am 29.3 31.9 20.5 59 5.8 NNW 7 11 4 6 1010.2 1010.1 0.0
20/08:30am 28.9 32.0 21.4 64 5.0 NNW 7 15 4 8 1010.2 1010.1 0.0
20/08:00am 28.2 31.8 22.0 69 4.2 N 6 11 3 6 1010.1 1010.0 0.0
20/07:30am 27.3 31.2 22.5 75 3.2 W 6 9 3 5 1010.0 1009.9 0.0
20/07:00am 25.7 30.4 22.6 83 2.1 W 2 7 1 4 1009.9 1009.8 0.0
20/06:30am 23.9 28.6 22.0 89 1.3 CALM 0 0 0 0 1009.5 1009.4 0.0
20/06:00am 23.8 28.5 21.9 89 1.3 CALM 0 0 0 0 1009.0 1008.9 0.0
20/05:30am 23.8 28.5 21.9 89 1.3 CALM 0 0 0 0 1008.5 1008.4 0.0
20/05:00am 24.0 27.9 21.9 88 1.4 WSW 4 7 2 4 1008.1 1008.0 0.0
20/04:30am 24.8 29.2 22.1 85 1.8 N 2 6 1 3 1007.8 1007.7 0.0
20/04:00am 25.1 28.7 22.0 83 2.1 NNW 6 7 3 4 1007.6 1007.5 0.0
20/03:30am 25.5 29.1 22.4 83 2.1 NNE 7 11 4 6 1007.7 1007.6 0.0
20/03:00am 25.7 29.2 22.2 81 2.4 N 7 9 4 5 1007.5 1007.4 0.0
20/02:30am 26.3 29.6 22.6 80 2.5 NNE 9 13 5 7 1007.8 1007.7 0.0
20/02:00am 26.6 29.6 22.7 79 2.6 NNE 11 15 6 8 1007.9 1007.8 0.0
20/01:30am 26.5 30.3 22.8 80 2.5 NE 7 11 4 6 1008.1 1008.0 0.0
20/01:00am 26.3 30.2 22.6 80 2.5 NE 6 11 3 6 1008.2 1008.1 0.0
20/12:30am 26.3 29.6 22.6 80 2.5 NE 9 11 5 6 1008.3 1008.2 0.0
20/12:00am 26.4 29.7 22.5 79 2.6 NNE 9 13 5 7 1008.3 1008.2 0.0
 
Date/Time
EST
Temp
°C
App
Temp
°C
Dew
Point
°C
Rel
Hum
%
Delta-T
°C
Wind Press
QNH
hPa
Press
MSL
hPa
Rain since
9am
mm
Dir  Spd
km/h
Gust
km/h
Spd
kts
Gust
kts
19/11:30pm 26.3 30.0 22.2 78 2.8 NNE 6 7 3 4 1008.5 1008.4 0.0
19/11:00pm 26.7 30.6 22.5 78 2.8 N 6 9 3 5 1008.4 1008.3 0.0
19/10:30pm 27.0 30.6 22.4 76 3.1 N 7 11 4 6 1008.3 1008.2 0.0
19/10:00pm 27.3 30.9 23.1 78 2.9 NNW 9 13 5 7 1008.3 1008.2 0.0
19/09:30pm 28.0 31.1 22.9 74 3.5 N 11 17 6 9 1008.2 1008.1 0.0
19/09:00pm 28.3 30.2 22.8 72 3.7 NNE 17 24 9 13 1007.6 1007.5 0.0
19/08:30pm 28.6 30.4 22.6 70 4.1 NNE 17 24 9 13 1007.5 1007.4 0.0
19/08:00pm 28.9 31.3 22.9 70 4.1 NNE 15 22 8 12 1007.2 1007.1 0.0
19/07:30pm 29.2 30.9 22.4 66 4.6 NE 17 24 9 13 1006.9 1006.8 0.0
19/07:00pm 29.9 31.2 21.6 61 5.6 NNE 17 20 9 11 1006.5 1006.4 0.0
19/06:30pm 31.1 32.9 21.9 58 6.2 N 15 22 8 12 1006.1 1006.0 0.0
19/06:00pm 31.8 32.9 21.3 53 7.1 N 17 22 9 12 1005.9 1005.8 0.0
19/05:30pm 32.5 33.9 22.6 56 6.8 NNE 19 26 10 14 1005.6 1005.5 0.0
19/05:00pm 33.5 34.6 22.0 51 7.9 NNE 19 24 10 13 1005.5 1005.4 0.0
19/04:30pm 34.1 35.2 21.2 47 8.7 NE 17 20 9 11 1005.5 1005.4 0.0
19/04:00pm 34.6 36.3 20.9 44 9.3 NNE 13 20 7 11 1005.6 1005.5 0.0

Other Formats:

Comma delimited format used in spreadsheet applications
http://www.bom.gov.au/fwo/IDQ60801/IDQ60801.95369.axf

JavaScript Object Notation format (JSON) in row-major order
http://www.bom.gov.au/fwo/IDQ60801/IDQ60801.95369.json